Time;durP1;ratioP1;P1;durP2;ratioP2;P2;SDS_P1;SDS_P2;PMS_P1;PMS_P2;Temp;Humidity;BMP_temperature;BMP_pressure;BME280_temperature;BME280_humidity;BME280_pressure;Samples;Min_cycle;Max_cycle;Signal;HPM_P1;HPM_P2
2023/06/05 00:02:06;;;;;;;;;;;21.50;44.60;;;;;;5059939;28;19981;-77
2023/06/05 00:04:35;;;;;;;;;;;21.40;44.70;;;;;;5068502;28;19932;-77
2023/06/05 00:07:02;;;;;;;;;;;21.40;44.80;;;;;;5058163;28;19940;-77
2023/06/05 00:09:30;;;;;;;;;;;21.30;44.80;;;;;;5067200;28;21967;-77
2023/06/05 00:11:56;;;;;;;;;;;21.30;45.00;;;;;;5062689;28;19982;-77
2023/06/05 00:14:23;;;;;;;;;;;21.30;45.00;;;;;;5057248;28;19929;-77
2023/06/05 00:16:51;;;;;;;;;;;21.20;45.00;;;;;;5058417;28;20029;-76
2023/06/05 00:19:17;;;;;;;;;;;21.20;45.00;;;;;;5060477;28;19928;-78
2023/06/05 00:21:44;;;;;;;;;;;21.10;45.10;;;;;;5063471;28;19994;-77
2023/06/05 00:24:11;;;;;;;;;;;21.10;45.20;;;;;;5068019;28;19936;-76
2023/06/05 00:26:38;;;;;;;;;;;21.00;45.20;;;;;;5066405;28;19936;-76
2023/06/05 00:29:05;;;;;;;;;;;21.10;45.40;;;;;;5064066;28;20582;-77
2023/06/05 00:31:32;;;;;;;;;;;21.00;45.40;;;;;;5048366;28;19998;-76
2023/06/05 00:33:59;;;;;;;;;;;20.90;45.40;;;;;;5060643;28;19935;-77
2023/06/05 00:36:25;;;;;;;;;;;20.90;45.50;;;;;;5068887;28;19936;-76
2023/06/05 00:38:52;;;;;;;;;;;20.90;45.70;;;;;;5057243;28;20432;-76
2023/06/05 00:41:18;;;;;;;;;;;20.80;45.70;;;;;;5058321;28;19967;-77
2023/06/05 00:43:46;;;;;;;;;;;20.80;45.80;;;;;;5053830;28;20494;-76
2023/06/05 00:46:14;;;;;;;;;;;20.80;45.90;;;;;;5050047;28;19987;-76
2023/06/05 00:48:42;;;;;;;;;;;20.70;46.00;;;;;;5055569;28;19981;-77
2023/06/05 00:51:10;;;;;;;;;;;20.70;46.10;;;;;;5052287;28;19928;-76
2023/06/05 00:53:37;;;;;;;;;;;20.60;46.10;;;;;;5061873;28;20465;-76
2023/06/05 00:56:03;;;;;;;;;;;20.60;46.30;;;;;;5053904;28;19937;-77
2023/06/05 00:58:31;;;;;;;;;;;20.60;46.40;;;;;;5049701;28;20098;-76
2023/06/05 01:01:00;;;;;;;;;;;20.50;46.50;;;;;;5048912;28;19935;-76
2023/06/05 01:03:29;;;;;;;;;;;20.50;46.60;;;;;;5054767;28;19928;-77
2023/06/05 01:06:02;;;;;;;;;;;20.50;46.70;;;;;;5048919;28;20029;-77
2023/06/05 01:08:30;;;;;;;;;;;20.40;46.70;;;;;;5050206;28;19966;-77
2023/06/05 01:10:59;;;;;;;;;;;20.30;46.80;;;;;;5051288;28;19935;-77
2023/06/05 01:13:27;;;;;;;;;;;20.30;46.90;;;;;;5049679;28;19928;-76
2023/06/05 01:15:56;;;;;;;;;;;20.30;47.00;;;;;;5048956;28;19928;-77
2023/06/05 01:18:24;;;;;;;;;;;20.30;47.00;;;;;;5050584;28;19932;-77
2023/06/05 01:20:51;;;;;;;;;;;20.20;47.10;;;;;;5054726;28;20658;-77
2023/06/05 01:23:25;;;;;;;;;;;20.20;47.20;;;;;;5055492;28;19929;-76
2023/06/05 01:25:53;;;;;;;;;;;20.10;47.20;;;;;;5048457;28;19936;-76
2023/06/05 01:28:22;;;;;;;;;;;20.10;47.30;;;;;;5052881;28;20288;-77
2023/06/05 01:30:52;;;;;;;;;;;20.00;47.60;;;;;;5046280;28;19938;-77
2023/06/05 01:33:25;;;;;;;;;;;20.00;47.50;;;;;;5049261;28;20553;-76
2023/06/05 01:35:53;;;;;;;;;;;20.00;47.70;;;;;;5056355;28;19928;-77
2023/06/05 01:38:22;;;;;;;;;;;19.90;47.70;;;;;;5046491;28;19935;-77
2023/06/05 01:40:50;;;;;;;;;;;19.90;47.90;;;;;;5052436;28;20013;-76
2023/06/05 01:43:17;;;;;;;;;;;19.90;48.20;;;;;;5051802;28;19928;-77
2023/06/05 01:45:43;;;;;;;;;;;19.80;48.10;;;;;;5052562;28;20585;-77
2023/06/05 01:48:11;;;;;;;;;;;19.80;48.00;;;;;;5056696;28;20029;-76
2023/06/05 01:50:38;;;;;;;;;;;19.80;48.10;;;;;;5055154;28;19932;-76
2023/06/05 01:53:04;;;;;;;;;;;19.70;48.10;;;;;;5049833;28;19932;-76
2023/06/05 01:55:32;;;;;;;;;;;19.70;48.30;;;;;;5047635;28;19940;-76
2023/06/05 01:57:59;;;;;;;;;;;19.60;48.40;;;;;;5051606;28;20559;-76
2023/06/05 02:00:27;;;;;;;;;;;19.60;48.50;;;;;;5054425;28;21410;-76
2023/06/05 02:02:53;;;;;;;;;;;19.50;48.40;;;;;;5047894;28;19935;-77
2023/06/05 02:05:20;;;;;;;;;;;19.50;48.50;;;;;;5052744;28;19935;-76
2023/06/05 02:07:49;;;;;;;;;;;19.50;48.60;;;;;;5059051;28;20026;-76
2023/06/05 02:10:15;;;;;;;;;;;19.50;48.80;;;;;;5047254;28;19928;-76
2023/06/05 02:12:43;;;;;;;;;;;19.40;48.90;;;;;;5057626;28;20287;-76
2023/06/05 02:15:12;;;;;;;;;;;19.40;48.90;;;;;;5056147;28;19936;-76
2023/06/05 02:17:44;;;;;;;;;;;19.40;48.90;;;;;;5065855;28;19928;-76
2023/06/05 02:20:12;;;;;;;;;;;19.30;48.90;;;;;;5052247;28;19929;-77
2023/06/05 02:22:38;;;;;;;;;;;19.30;49.00;;;;;;5068090;28;19943;-76
2023/06/05 02:25:06;;;;;;;;;;;19.30;49.20;;;;;;5061325;28;20322;-76
2023/06/05 02:27:32;;;;;;;;;;;19.20;49.30;;;;;;5063528;28;19968;-76
2023/06/05 02:30:00;;;;;;;;;;;19.20;49.30;;;;;;5059807;28;19935;-76
2023/06/05 02:32:28;;;;;;;;;;;19.20;49.40;;;;;;5060813;28;20310;-76
2023/06/05 02:34:56;;;;;;;;;;;19.10;49.50;;;;;;5057978;28;20035;-76
2023/06/05 02:37:23;;;;;;;;;;;19.10;49.40;;;;;;5060346;28;19958;-76
2023/06/05 02:39:49;;;;;;;;;;;19.00;49.50;;;;;;5061387;28;20492;-76
2023/06/05 02:42:18;;;;;;;;;;;19.00;49.50;;;;;;5052699;28;19943;-76
2023/06/05 02:44:45;;;;;;;;;;;19.00;49.70;;;;;;5057318;28;20023;-76
2023/06/05 02:47:13;;;;;;;;;;;19.00;49.70;;;;;;5057418;28;19938;-76
2023/06/05 02:49:40;;;;;;;;;;;19.00;49.80;;;;;;5054393;28;19929;-75
2023/06/05 02:52:07;;;;;;;;;;;18.90;49.70;;;;;;5051129;28;19936;-76
2023/06/05 02:54:33;;;;;;;;;;;18.90;49.80;;;;;;5053223;28;19932;-76
2023/06/05 02:57:01;;;;;;;;;;;18.90;49.90;;;;;;5055438;28;19932;-76
2023/06/05 02:59:27;;;;;;;;;;;18.80;49.80;;;;;;5051624;28;20003;-76
2023/06/05 03:01:54;;;;;;;;;;;18.80;49.90;;;;;;5051245;28;19936;-76
2023/06/05 03:04:23;;;;;;;;;;;18.80;49.90;;;;;;5053696;28;19954;-77
2023/06/05 03:06:50;;;;;;;;;;;18.70;49.90;;;;;;5047511;28;19933;-76
2023/06/05 03:09:16;;;;;;;;;;;18.70;50.00;;;;;;5052879;28;20066;-76
2023/06/05 03:11:44;;;;;;;;;;;18.60;50.00;;;;;;5049472;28;19928;-76
2023/06/05 03:14:11;;;;;;;;;;;18.60;50.00;;;;;;5056157;28;20021;-76
2023/06/05 03:16:41;;;;;;;;;;;18.60;50.10;;;;;;5059504;28;20318;-76
2023/06/05 03:19:08;;;;;;;;;;;18.60;50.20;;;;;;5066457;28;19933;-75
2023/06/05 03:21:37;;;;;;;;;;;18.50;50.10;;;;;;5058719;28;19954;-76
2023/06/05 03:24:05;;;;;;;;;;;18.50;50.30;;;;;;5059776;28;19968;-76
2023/06/05 03:26:32;;;;;;;;;;;18.50;50.30;;;;;;5056157;28;19936;-76
2023/06/05 03:28:58;;;;;;;;;;;18.50;50.40;;;;;;5056605;28;19935;-76
2023/06/05 03:31:25;;;;;;;;;;;18.40;51.00;;;;;;5057528;28;19932;-76
2023/06/05 03:33:52;;;;;;;;;;;18.40;50.50;;;;;;5059998;28;19932;-76
2023/06/05 03:36:18;;;;;;;;;;;18.40;50.50;;;;;;5064816;28;19928;-76
2023/06/05 03:38:46;;;;;;;;;;;18.30;50.40;;;;;;5062470;28;19959;-76
2023/06/05 03:41:13;;;;;;;;;;;18.30;50.50;;;;;;5061583;28;19928;-75
2023/06/05 03:43:39;;;;;;;;;;;18.30;50.60;;;;;;5057649;28;19929;-76
2023/06/05 03:46:07;;;;;;;;;;;18.20;50.60;;;;;;5057314;28;19937;-76
2023/06/05 03:48:33;;;;;;;;;;;18.20;50.70;;;;;;5059132;28;19936;-77
2023/06/05 03:51:00;;;;;;;;;;;18.30;50.80;;;;;;5055854;28;20425;-76
2023/06/05 03:53:28;;;;;;;;;;;18.20;50.80;;;;;;5057980;28;20496;-76
2023/06/05 03:55:56;;;;;;;;;;;18.10;50.80;;;;;;5059231;28;19932;-76
2023/06/05 03:58:23;;;;;;;;;;;18.10;50.90;;;;;;5062030;28;20414;-75
2023/06/05 04:00:50;;;;;;;;;;;18.10;51.00;;;;;;5064953;28;19981;-76
2023/06/05 04:03:18;;;;;;;;;;;18.00;51.00;;;;;;5063805;28;19929;-76
2023/06/05 04:05:44;;;;;;;;;;;18.00;51.10;;;;;;5062786;28;19928;-76
2023/06/05 04:08:11;;;;;;;;;;;18.00;51.20;;;;;;5054779;28;19944;-76
2023/06/05 04:10:37;;;;;;;;;;;18.00;51.20;;;;;;5055775;28;19928;-76
2023/06/05 04:13:05;;;;;;;;;;;17.90;51.20;;;;;;5058221;28;19928;-76
2023/06/05 04:15:33;;;;;;;;;;;18.00;51.30;;;;;;5064289;28;19933;-76
2023/06/05 04:18:00;;;;;;;;;;;17.90;51.40;;;;;;5047963;28;19929;-76
2023/06/05 04:20:26;;;;;;;;;;;17.90;51.40;;;;;;5051790;28;20717;-76
2023/06/05 04:22:53;;;;;;;;;;;17.80;51.40;;;;;;5048021;28;19975;-76
2023/06/05 04:25:19;;;;;;;;;;;17.80;51.40;;;;;;5047916;28;19937;-76
2023/06/05 04:27:48;;;;;;;;;;;17.80;51.60;;;;;;5051697;28;19978;-76
2023/06/05 04:30:16;;;;;;;;;;;17.70;51.60;;;;;;5047185;28;20466;-76
2023/06/05 04:32:52;;;;;;;;;;;17.70;51.60;;;;;;5061118;28;19939;-76
2023/06/05 04:35:19;;;;;;;;;;;17.70;51.70;;;;;;5058981;28;19928;-76
2023/06/05 04:37:46;;;;;;;;;;;17.70;51.80;;;;;;5048617;28;19932;-76
2023/06/05 04:40:12;;;;;;;;;;;17.70;51.80;;;;;;5045782;28;20063;-76
2023/06/05 04:42:39;;;;;;;;;;;17.70;51.90;;;;;;5046687;28;19932;-76
2023/06/05 04:45:07;;;;;;;;;;;17.60;51.90;;;;;;5051696;28;20031;-76
2023/06/05 04:47:35;;;;;;;;;;;17.60;52.00;;;;;;5051323;28;19939;-76
2023/06/05 04:50:05;;;;;;;;;;;17.60;52.10;;;;;;5051542;28;19933;-76
2023/06/05 04:52:32;;;;;;;;;;;17.60;52.30;;;;;;5050894;28;19928;-76
2023/06/05 04:55:01;;;;;;;;;;;17.60;52.40;;;;;;5055763;28;20330;-76
2023/06/05 04:57:28;;;;;;;;;;;17.50;52.50;;;;;;5050163;28;19924;-76
2023/06/05 04:59:54;;;;;;;;;;;17.50;52.60;;;;;;5058904;28;19928;-76
2023/06/05 05:02:21;;;;;;;;;;;17.50;52.70;;;;;;5049005;28;20792;-76
2023/06/05 05:04:49;;;;;;;;;;;17.50;52.80;;;;;;5044086;28;20043;-76
2023/06/05 05:07:16;;;;;;;;;;;17.50;53.00;;;;;;5054368;28;20023;-76
2023/06/05 05:09:43;;;;;;;;;;;17.50;53.00;;;;;;5052438;28;20006;-76
2023/06/05 05:12:11;;;;;;;;;;;17.40;53.10;;;;;;5051933;28;20727;-76
2023/06/05 05:14:38;;;;;;;;;;;17.40;53.20;;;;;;5058678;28;19928;-76
2023/06/05 05:17:04;;;;;;;;;;;17.40;53.30;;;;;;5054872;28;19928;-76
2023/06/05 05:19:31;;;;;;;;;;;17.40;53.50;;;;;;5045705;28;19936;-76
2023/06/05 05:21:59;;;;;;;;;;;17.40;53.60;;;;;;5056437;28;19935;-76
2023/06/05 05:24:25;;;;;;;;;;;17.40;53.70;;;;;;5046622;28;20007;-75
2023/06/05 05:26:52;;;;;;;;;;;17.40;53.80;;;;;;5056144;28;20368;-76
2023/06/05 05:29:19;;;;;;;;;;;17.40;53.90;;;;;;5064065;28;19985;-77
2023/06/05 05:31:46;;;;;;;;;;;17.40;54.00;;;;;;5057364;28;19936;-71
2023/06/05 05:34:12;;;;;;;;;;;17.40;54.10;;;;;;5053229;28;20356;-72
2023/06/05 05:36:39;;;;;;;;;;;17.40;54.10;;;;;;5062638;28;19929;-73
2023/06/05 05:39:07;;;;;;;;;;;17.40;54.20;;;;;;5061454;28;19928;-72
2023/06/05 05:41:34;;;;;;;;;;;17.40;54.30;;;;;;5057774;28;20436;-72
2023/06/05 05:44:00;;;;;;;;;;;17.40;54.30;;;;;;5059425;28;19928;-71
2023/06/05 05:46:27;;;;;;;;;;;17.40;54.30;;;;;;5058293;28;19928;-73
2023/06/05 05:48:54;;;;;;;;;;;17.40;54.20;;;;;;5054072;28;19936;-73
2023/06/05 05:51:21;;;;;;;;;;;17.40;54.30;;;;;;5056329;28;20019;-73
2023/06/05 05:53:50;;;;;;;;;;;17.40;54.20;;;;;;5054717;28;23579;-73
2023/06/05 05:56:17;;;;;;;;;;;17.40;54.20;;;;;;5049221;28;19986;-72
2023/06/05 05:58:44;;;;;;;;;;;17.40;54.20;;;;;;5055471;28;19960;-73
2023/06/05 06:01:12;;;;;;;;;;;17.50;54.20;;;;;;5055117;28;20048;-79
2023/06/05 06:03:39;;;;;;;;;;;17.50;54.10;;;;;;5059266;28;20369;-78
2023/06/05 06:06:06;;;;;;;;;;;17.50;54.00;;;;;;5056040;28;19970;-79
2023/06/05 06:08:33;;;;;;;;;;;17.50;53.90;;;;;;5058728;28;19956;-79
2023/06/05 06:11:00;;;;;;;;;;;17.50;53.80;;;;;;5050382;28;19978;-79
2023/06/05 06:13:28;;;;;;;;;;;17.50;53.60;;;;;;5051674;28;19933;-79
2023/06/05 06:15:55;;;;;;;;;;;17.50;53.50;;;;;;5062996;28;19932;-79
2023/06/05 06:18:21;;;;;;;;;;;17.60;53.60;;;;;;5056377;28;19935;-78
2023/06/05 06:20:48;;;;;;;;;;;17.60;53.50;;;;;;5056003;28;19936;-79
2023/06/05 06:23:14;;;;;;;;;;;17.60;53.50;;;;;;5052658;28;20014;-78
2023/06/05 06:25:41;;;;;;;;;;;17.60;53.50;;;;;;5055736;28;19936;-78
2023/06/05 06:28:07;;;;;;;;;;;17.60;53.30;;;;;;5058886;28;19974;-78
2023/06/05 06:30:36;;;;;;;;;;;17.60;53.20;;;;;;5050110;28;19936;-78
2023/06/05 06:33:04;;;;;;;;;;;17.70;53.10;;;;;;5049841;28;19935;-79
2023/06/05 06:35:31;;;;;;;;;;;17.60;52.90;;;;;;5057615;28;19924;-78
2023/06/05 06:37:58;;;;;;;;;;;17.60;52.80;;;;;;5062886;28;20119;-78
2023/06/05 06:40:25;;;;;;;;;;;17.60;52.70;;;;;;5053649;28;19940;-80
2023/06/05 06:42:52;;;;;;;;;;;17.60;52.60;;;;;;5052189;28;19932;-78
2023/06/05 06:45:18;;;;;;;;;;;17.70;52.60;;;;;;5053814;28;19929;-79
2023/06/05 06:47:46;;;;;;;;;;;17.70;52.60;;;;;;5052691;28;20756;-79
2023/06/05 06:50:13;;;;;;;;;;;17.70;52.50;;;;;;5049013;28;19929;-78
2023/06/05 06:52:40;;;;;;;;;;;17.70;52.50;;;;;;5060629;28;19929;-79
2023/06/05 06:55:07;;;;;;;;;;;17.70;52.40;;;;;;5069084;28;19935;-79
2023/06/05 06:57:34;;;;;;;;;;;17.70;52.50;;;;;;5051227;28;19940;-78
2023/06/05 07:00:00;;;;;;;;;;;17.70;52.50;;;;;;5059011;28;19929;-78
2023/06/05 07:02:27;;;;;;;;;;;17.80;52.40;;;;;;5045579;28;19936;-77
2023/06/05 07:04:54;;;;;;;;;;;17.80;52.40;;;;;;5054598;28;20021;-79
2023/06/05 07:07:22;;;;;;;;;;;17.90;52.60;;;;;;5059851;28;20620;-73
2023/06/05 07:09:50;;;;;;;;;;;17.80;52.40;;;;;;5055208;28;20485;-73
2023/06/05 07:12:19;;;;;;;;;;;17.90;52.70;;;;;;5053590;28;19932;-73
2023/06/05 07:14:45;;;;;;;;;;;17.90;52.60;;;;;;5052732;28;20018;-73
2023/06/05 07:17:12;;;;;;;;;;;17.90;52.30;;;;;;5055692;28;20398;-73
2023/06/05 07:19:40;;;;;;;;;;;17.90;52.70;;;;;;5065000;28;20028;-74
2023/06/05 07:22:08;;;;;;;;;;;17.90;52.60;;;;;;5054666;28;19936;-74
2023/06/05 07:24:36;;;;;;;;;;;18.00;52.60;;;;;;5058015;28;19929;-74
2023/06/05 07:27:04;;;;;;;;;;;18.00;52.50;;;;;;5061973;28;19935;-74
2023/06/05 07:29:31;;;;;;;;;;;18.00;52.40;;;;;;5064578;28;19932;-74
2023/06/05 07:31:58;;;;;;;;;;;18.00;52.30;;;;;;5072058;28;20019;-74
2023/06/05 07:34:25;;;;;;;;;;;18.00;52.30;;;;;;5067367;28;20673;-73
2023/06/05 07:36:52;;;;;;;;;;;18.10;52.30;;;;;;5072096;28;20425;-73
2023/06/05 07:39:21;;;;;;;;;;;18.10;52.20;;;;;;5066670;28;20715;-73
2023/06/05 07:41:48;;;;;;;;;;;18.10;52.20;;;;;;5064605;28;19975;-73
2023/06/05 07:44:15;;;;;;;;;;;18.20;52.10;;;;;;5057808;28;20493;-73
2023/06/05 07:46:42;;;;;;;;;;;18.10;52.10;;;;;;5069037;28;19928;-73
2023/06/05 07:49:09;;;;;;;;;;;18.20;52.10;;;;;;5064022;28;19928;-73
2023/06/05 07:51:37;;;;;;;;;;;18.20;52.10;;;;;;5060400;28;19938;-73
2023/06/05 07:54:03;;;;;;;;;;;18.20;52.20;;;;;;5066492;28;20550;-73
2023/06/05 07:56:32;;;;;;;;;;;18.20;52.20;;;;;;5064330;28;19932;-73
2023/06/05 07:58:59;;;;;;;;;;;18.30;52.10;;;;;;5073975;28;20546;-73
2023/06/05 08:01:27;;;;;;;;;;;18.30;52.00;;;;;;5062841;28;19936;-73
2023/06/05 08:03:54;;;;;;;;;;;18.40;52.10;;;;;;5060622;28;19928;-73
2023/06/05 08:06:20;;;;;;;;;;;18.40;52.10;;;;;;5066676;28;19928;-74
2023/06/05 08:08:47;;;;;;;;;;;18.40;52.00;;;;;;5068045;28;22226;-73
2023/06/05 08:11:13;;;;;;;;;;;18.40;51.90;;;;;;5063835;28;20536;-73
2023/06/05 08:13:41;;;;;;;;;;;18.40;51.80;;;;;;5058233;28;19928;-73
2023/06/05 08:16:08;;;;;;;;;;;18.50;51.90;;;;;;5061066;28;20310;-73
2023/06/05 08:18:35;;;;;;;;;;;18.60;52.00;;;;;;5065479;28;20397;-77
2023/06/05 08:21:01;;;;;;;;;;;18.60;51.90;;;;;;5046824;28;19975;-78
2023/06/05 08:23:28;;;;;;;;;;;18.60;52.00;;;;;;5049119;28;20473;-79
2023/06/05 08:25:55;;;;;;;;;;;18.60;52.00;;;;;;5059974;28;19928;-78
2023/06/05 08:28:21;;;;;;;;;;;18.70;52.00;;;;;;5047227;28;19935;-77
2023/06/05 08:30:51;;;;;;;;;;;18.70;51.90;;;;;;5051726;28;19932;-78
2023/06/05 08:33:18;;;;;;;;;;;18.80;52.00;;;;;;5054337;28;19928;-78
2023/06/05 08:35:45;;;;;;;;;;;18.80;52.00;;;;;;5048646;28;19932;-78
2023/06/05 08:38:11;;;;;;;;;;;18.90;52.10;;;;;;5056174;28;19932;-77
2023/06/05 08:40:39;;;;;;;;;;;18.90;52.10;;;;;;5048175;28;20318;-77
2023/06/05 08:43:06;;;;;;;;;;;18.90;52.10;;;;;;5052258;28;19932;-77
2023/06/05 08:45:32;;;;;;;;;;;18.90;52.10;;;;;;5050596;28;20430;-77
2023/06/05 08:48:01;;;;;;;;;;;19.00;51.90;;;;;;5049090;28;19929;-78
2023/06/05 08:50:28;;;;;;;;;;;19.00;51.70;;;;;;5047416;28;20915;-78
2023/06/05 08:52:57;;;;;;;;;;;19.10;51.80;;;;;;5052193;28;19935;-77
2023/06/05 08:55:23;;;;;;;;;;;19.10;51.80;;;;;;5052301;28;19928;-77
2023/06/05 08:57:50;;;;;;;;;;;19.20;51.80;;;;;;5054340;28;19928;-78
2023/06/05 09:00:17;;;;;;;;;;;19.20;51.80;;;;;;5056757;28;20313;-77
2023/06/05 09:02:46;;;;;;;;;;;19.30;51.80;;;;;;5048090;28;19936;-77
2023/06/05 09:05:14;;;;;;;;;;;19.30;51.90;;;;;;5057980;28;19928;-77
2023/06/05 09:07:41;;;;;;;;;;;19.30;51.80;;;;;;5051490;28;20004;-77
2023/06/05 09:10:08;;;;;;;;;;;19.40;51.80;;;;;;5050801;28;20059;-77
2023/06/05 09:12:52;;;;;;;;;;;19.40;52.10;;;;;;5044435;28;20023;-77
2023/06/05 09:15:22;;;;;;;;;;;19.50;52.20;;;;;;5048553;28;19928;-78
2023/06/05 09:17:48;;;;;;;;;;;19.50;52.20;;;;;;5058015;28;19974;-79
2023/06/05 09:20:26;;;;;;;;;;;19.60;52.40;;;;;;5051284;28;19929;-78
2023/06/05 09:22:53;;;;;;;;;;;19.60;52.40;;;;;;5048082;28;19943;-78
2023/06/05 09:25:20;;;;;;;;;;;19.70;52.40;;;;;;5051601;28;19931;-78
2023/06/05 09:28:05;;;;;;;;;;;19.70;52.30;;;;;;5048726;28;20458;-78
2023/06/05 09:30:32;;;;;;;;;;;19.80;52.30;;;;;;5051947;28;19929;-78
2023/06/05 09:33:08;;;;;;;;;;;19.80;52.20;;;;;;5049940;28;19932;-78
2023/06/05 09:35:38;;;;;;;;;;;19.90;52.20;;;;;;5056286;28;19936;-78
2023/06/05 09:38:05;;;;;;;;;;;20.00;52.20;;;;;;5057944;28;20035;-78
2023/06/05 09:40:38;;;;;;;;;;;20.00;52.10;;;;;;5051908;28;20682;-77
2023/06/05 09:43:13;;;;;;;;;;;20.10;52.20;;;;;;5053842;28;19932;-78
2023/06/05 09:45:43;;;;;;;;;;;20.20;52.40;;;;;;5061767;28;20001;-78
2023/06/05 09:48:13;;;;;;;;;;;20.30;52.80;;;;;;5058446;28;19928;-78
2023/06/05 09:50:42;;;;;;;;;;;20.40;54.00;;;;;;5052768;28;19936;-78
2023/06/05 09:53:09;;;;;;;;;;;20.40;53.80;;;;;;5055583;28;19979;-78
2023/06/05 09:55:36;;;;;;;;;;;20.50;53.80;;;;;;5054930;28;20670;-79
2023/06/05 09:58:10;;;;;;;;;;;20.60;53.60;;;;;;5052724;28;20466;-79
2023/06/05 10:00:38;;;;;;;;;;;20.70;53.30;;;;;;5049170;28;20450;-79
2023/06/05 10:03:10;;;;;;;;;;;20.70;52.80;;;;;;5056098;28;19948;-78
2023/06/05 10:05:38;;;;;;;;;;;20.80;52.90;;;;;;5055548;28;19929;-79
2023/06/05 10:08:06;;;;;;;;;;;20.90;52.80;;;;;;5053665;28;20326;-78
2023/06/05 10:10:34;;;;;;;;;;;21.00;52.50;;;;;;5056173;28;19925;-79
2023/06/05 10:13:01;;;;;;;;;;;21.00;52.50;;;;;;5051797;28;19935;-79
2023/06/05 10:15:28;;;;;;;;;;;21.10;52.50;;;;;;5050064;28;19979;-78
2023/06/05 10:17:55;;;;;;;;;;;21.20;52.30;;;;;;5054122;28;20443;-78
2023/06/05 10:20:22;;;;;;;;;;;21.30;52.20;;;;;;5050013;28;20020;-79
2023/06/05 10:22:49;;;;;;;;;;;21.40;52.40;;;;;;5061049;28;19947;-79
2023/06/05 10:25:19;;;;;;;;;;;21.40;52.30;;;;;;5065502;28;20279;-78
2023/06/05 10:27:53;;;;;;;;;;;21.50;52.50;;;;;;5058463;28;19929;-80
2023/06/05 10:30:30;;;;;;;;;;;21.60;52.40;;;;;;5054329;28;19935;-78
2023/06/05 10:33:03;;;;;;;;;;;21.70;52.30;;;;;;5056381;28;20477;-79
2023/06/05 10:35:38;;;;;;;;;;;21.80;52.10;;;;;;5057957;28;19925;-80
2023/06/05 10:38:10;;;;;;;;;;;21.80;51.60;;;;;;5052858;28;19947;-78
2023/06/05 10:40:38;;;;;;;;;;;21.90;51.50;;;;;;5054296;28;20015;-78
2023/06/05 10:43:23;;;;;;;;;;;22.00;51.70;;;;;;5056876;28;19936;-79
2023/06/05 10:45:50;;;;;;;;;;;22.10;51.50;;;;;;5060417;28;19928;-78
2023/06/05 10:48:17;;;;;;;;;;;22.20;51.60;;;;;;5055779;28;19928;-78
2023/06/05 10:50:44;;;;;;;;;;;22.20;51.30;;;;;;5053582;28;20019;-79
2023/06/05 10:53:40;;;;;;;;;;;22.30;51.00;;;;;;5060644;28;19967;-79
2023/06/05 10:56:08;;;;;;;;;;;22.40;50.80;;;;;;5057131;28;19936;-78
2023/06/05 10:58:36;;;;;;;;;;;22.50;50.30;;;;;;5057590;28;19929;-79
2023/06/05 11:01:19;;;;;;;;;;;22.60;50.20;;;;;;5055951;28;19929;-79
2023/06/05 11:03:56;;;;;;;;;;;22.60;50.10;;;;;;5060220;28;20376;-79
2023/06/05 11:06:23;;;;;;;;;;;22.70;50.00;;;;;;5057927;28;19928;-79
2023/06/05 11:09:05;;;;;;;;;;;22.80;49.80;;;;;;5055365;28;19935;-77
2023/06/05 11:11:55;;;;;;;;;;;22.90;49.50;;;;;;5051832;28;19951;-78
2023/06/05 11:14:21;;;;;;;;;;;23.00;49.30;;;;;;5047102;28;19937;-79
2023/06/05 11:16:48;;;;;;;;;;;23.10;49.10;;;;;;5055951;28;19928;-78
2023/06/05 11:19:33;;;;;;;;;;;23.20;49.00;;;;;;5052021;28;19928;-79
2023/06/05 11:22:07;;;;;;;;;;;23.20;48.80;;;;;;5056844;28;19928;-78
2023/06/05 11:24:35;;;;;;;;;;;23.30;48.50;;;;;;5058066;28;20386;-78
2023/06/05 11:27:03;;;;;;;;;;;23.40;48.30;;;;;;5061142;28;19929;-79
2023/06/05 11:29:30;;;;;;;;;;;23.40;48.10;;;;;;5042499;28;20386;-78
2023/06/05 11:31:56;;;;;;;;;;;23.50;48.10;;;;;;5050062;28;19925;-78
2023/06/05 11:34:23;;;;;;;;;;;23.50;47.80;;;;;;5049174;28;19982;-79
2023/06/05 11:36:50;;;;;;;;;;;23.50;47.60;;;;;;5050505;28;19925;-78
2023/06/05 11:39:16;;;;;;;;;;;23.50;47.50;;;;;;5054084;28;19939;-79
2023/06/05 11:41:46;;;;;;;;;;;23.50;47.40;;;;;;5052112;28;19924;-78
2023/06/05 11:44:15;;;;;;;;;;;23.60;47.40;;;;;;5052262;28;19959;-78
2023/06/05 11:46:42;;;;;;;;;;;23.60;47.30;;;;;;5051053;28;20461;-77
2023/06/05 11:49:10;;;;;;;;;;;23.60;47.20;;;;;;5054947;28;19978;-78
2023/06/05 11:51:37;;;;;;;;;;;23.70;47.10;;;;;;5053735;28;19931;-79
2023/06/05 11:54:07;;;;;;;;;;;23.80;46.90;;;;;;5051730;28;19925;-79
2023/06/05 11:56:34;;;;;;;;;;;23.90;46.50;;;;;;5051887;28;19964;-79
2023/06/05 11:59:00;;;;;;;;;;;23.90;46.20;;;;;;5055733;28;20406;-78
2023/06/05 12:01:31;;;;;;;;;;;24.00;45.50;;;;;;5055638;28;20342;-78
2023/06/05 12:04:02;;;;;;;;;;;24.10;45.40;;;;;;5051543;28;20383;-79
2023/06/05 12:06:29;;;;;;;;;;;24.10;45.30;;;;;;5050594;28;20726;-79
2023/06/05 12:09:07;;;;;;;;;;;24.30;45.00;;;;;;5047180;28;19937;-79
2023/06/05 12:11:34;;;;;;;;;;;24.30;44.40;;;;;;5050274;28;19948;-78
2023/06/05 12:14:01;;;;;;;;;;;24.40;44.50;;;;;;5046288;28;20086;-79
2023/06/05 12:16:32;;;;;;;;;;;24.50;44.40;;;;;;5052788;28;19929;-79
2023/06/05 12:18:59;;;;;;;;;;;24.50;44.10;;;;;;5051007;28;20001;-78
2023/06/05 12:21:26;;;;;;;;;;;24.60;43.90;;;;;;5050324;28;19928;-79
2023/06/05 12:24:01;;;;;;;;;;;24.60;43.80;;;;;;5048016;28;19940;-79
2023/06/05 12:26:29;;;;;;;;;;;24.70;43.70;;;;;;5046530;28;19934;-79
2023/06/05 12:29:03;;;;;;;;;;;24.60;43.60;;;;;;5050200;28;19935;-79
2023/06/05 12:31:34;;;;;;;;;;;24.70;43.70;;;;;;5048723;28;19932;-79
2023/06/05 12:34:01;;;;;;;;;;;24.70;43.60;;;;;;5052075;28;20900;-79
2023/06/05 12:36:28;;;;;;;;;;;24.80;43.20;;;;;;5052949;28;19929;-79
2023/06/05 12:38:55;;;;;;;;;;;24.80;43.00;;;;;;5044296;28;19939;-79
2023/06/05 12:41:22;;;;;;;;;;;24.90;42.90;;;;;;5046968;28;19999;-79
2023/06/05 12:43:59;;;;;;;;;;;24.90;42.80;;;;;;5049783;28;20691;-78
2023/06/05 12:46:25;;;;;;;;;;;25.00;42.70;;;;;;5045921;28;19936;-79
2023/06/05 12:48:53;;;;;;;;;;;25.10;42.70;;;;;;5048527;28;20010;-79
2023/06/05 12:51:20;;;;;;;;;;;25.10;42.60;;;;;;5053360;28;19932;-80
2023/06/05 12:53:47;;;;;;;;;;;25.20;42.90;;;;;;5050513;28;19929;-79
2023/06/05 12:56:13;;;;;;;;;;;25.30;43.00;;;;;;5042594;28;20379;-79
2023/06/05 12:58:40;;;;;;;;;;;25.30;42.40;;;;;;5044800;28;20015;-79
2023/06/05 13:01:07;;;;;;;;;;;25.40;42.40;;;;;;5050816;28;19989;-79
2023/06/05 13:03:34;;;;;;;;;;;25.40;42.30;;;;;;5051556;28;19928;-79
2023/06/05 13:06:02;;;;;;;;;;;25.40;42.00;;;;;;5046031;28;19935;-80
2023/06/05 13:08:28;;;;;;;;;;;25.50;41.90;;;;;;5048690;28;19936;-79
2023/06/05 13:10:55;;;;;;;;;;;25.60;41.80;;;;;;5049790;28;19940;-78
2023/06/05 13:13:21;;;;;;;;;;;25.60;41.40;;;;;;5047727;28;20626;-80
2023/06/05 13:15:48;;;;;;;;;;;25.70;41.30;;;;;;5046655;28;20070;-78
2023/06/05 13:18:14;;;;;;;;;;;25.80;41.50;;;;;;5051514;28;20563;-81
2023/06/05 13:20:41;;;;;;;;;;;25.80;41.00;;;;;;5050466;28;19981;-74
2023/06/05 13:23:10;;;;;;;;;;;25.90;40.40;;;;;;5058066;28;19932;-75
2023/06/05 13:25:36;;;;;;;;;;;25.90;40.20;;;;;;5053878;28;20461;-74
2023/06/05 13:28:03;;;;;;;;;;;26.00;40.30;;;;;;5048940;28;20000;-75
2023/06/05 13:30:29;;;;;;;;;;;26.00;40.40;;;;;;5044050;28;19929;-74
2023/06/05 13:32:56;;;;;;;;;;;26.10;40.40;;;;;;5038881;28;19925;-75
2023/06/05 13:35:23;;;;;;;;;;;26.20;40.00;;;;;;5046133;28;19940;-74
2023/06/05 13:37:50;;;;;;;;;;;26.20;39.80;;;;;;5052337;28;19986;-76
2023/06/05 13:40:18;;;;;;;;;;;26.30;39.90;;;;;;5048908;28;20002;-75
2023/06/05 13:42:45;;;;;;;;;;;26.30;39.70;;;;;;5061655;28;20603;-75
2023/06/05 13:45:11;;;;;;;;;;;26.40;39.90;;;;;;5063804;28;20723;-77
2023/06/05 13:47:38;;;;;;;;;;;26.40;40.10;;;;;;5064119;28;19928;-74
2023/06/05 13:50:05;;;;;;;;;;;26.50;39.30;;;;;;5055248;28;20723;-74
2023/06/05 13:52:31;;;;;;;;;;;26.50;38.70;;;;;;5061704;28;19939;-74
2023/06/05 13:54:58;;;;;;;;;;;26.60;38.40;;;;;;5058539;28;19962;-74
2023/06/05 13:57:27;;;;;;;;;;;26.70;38.70;;;;;;5055968;28;19978;-74
2023/06/05 13:59:55;;;;;;;;;;;26.70;38.50;;;;;;5052813;28;19990;-81
2023/06/05 14:02:22;;;;;;;;;;;26.70;38.90;;;;;;5054952;28;19940;-79
2023/06/05 14:04:48;;;;;;;;;;;26.80;38.10;;;;;;5059843;28;19932;-80
2023/06/05 14:07:15;;;;;;;;;;;26.80;37.70;;;;;;5063041;28;19942;-80
2023/06/05 14:09:42;;;;;;;;;;;26.90;37.90;;;;;;5054246;28;19959;-80
2023/06/05 14:12:09;;;;;;;;;;;26.90;38.60;;;;;;5054498;28;20674;-79
2023/06/05 14:14:37;;;;;;;;;;;27.00;37.60;;;;;;5048303;28;21403;-79
2023/06/05 14:17:04;;;;;;;;;;;27.10;37.20;;;;;;5057017;28;19932;-79
2023/06/05 14:19:30;;;;;;;;;;;27.10;37.00;;;;;;5061111;28;19963;-79
2023/06/05 14:21:57;;;;;;;;;;;27.20;36.90;;;;;;5060142;28;19950;-79